Time;durP1;ratioP1;P1;durP2;ratioP2;P2;SDS_P1;SDS_P2;PMS_P1;PMS_P2;Temp;Humidity;BMP_temperature;BMP_pressure;BME280_temperature;BME280_humidity;BME280_pressure;Samples;Min_cycle;Max_cycle;Signal;HPM_P1;HPM_P2
2021/08/15 00:00:23;;;;;;;13.77;8.95;;;;;;;14.29;100.00;101658.41;2616996;31;20334;-62
2021/08/15 00:02:52;;;;;;;12.70;8.23;;;;;;;14.36;100.00;101664.97;2617421;36;20057;-61
2021/08/15 00:05:23;;;;;;;11.98;8.20;;;;;;;14.33;100.00;101659.84;2617197;36;20054;-62
2021/08/15 00:07:51;;;;;;;10.48;7.60;;;;;;;14.33;100.00;101657.16;2617387;36;20126;-62
2021/08/15 00:10:19;;;;;;;12.27;7.50;;;;;;;14.32;100.00;101652.72;2617161;36;20037;-62
2021/08/15 00:12:47;;;;;;;10.70;7.13;;;;;;;14.27;100.00;101652.31;2617319;36;20146;-61
2021/08/15 00:15:17;;;;;;;13.07;7.07;;;;;;;14.25;100.00;101646.19;2617201;36;20035;-62
2021/08/15 00:17:46;;;;;;;9.98;6.80;;;;;;;14.28;100.00;101640.47;2617397;36;20026;-62
2021/08/15 00:20:15;;;;;;;10.95;6.72;;;;;;;14.32;100.00;101651.88;2617059;36;20122;-62
2021/08/15 00:22:46;;;;;;;11.02;6.18;;;;;;;14.41;100.00;101645.59;2617402;36;20637;-62
2021/08/15 00:25:16;;;;;;;10.00;6.35;;;;;;;14.52;100.00;101652.75;2617475;36;20483;-62
2021/08/15 00:27:45;;;;;;;15.52;6.65;;;;;;;14.54;100.00;101656.16;2617392;36;20038;-62
2021/08/15 00:30:16;;;;;;;9.23;6.18;;;;;;;14.68;100.00;101661.19;2616911;36;20162;-61
2021/08/15 00:32:45;;;;;;;13.20;6.10;;;;;;;14.72;100.00;101634.63;2617254;36;20030;-62
2021/08/15 00:35:13;;;;;;;;;;;;;;;14.77;100.00;101634.22;2617350;36;20122;-62
2021/08/15 00:37:42;;;;;;;11.73;6.53;;;;;;;14.85;100.00;101642.47;2617104;36;20001;-62
2021/08/15 00:40:14;;;;;;;10.68;6.78;;;;;;;14.93;100.00;101650.75;2617146;31;20043;-62
2021/08/15 00:42:42;;;;;;;10.45;6.18;;;;;;;14.96;100.00;101639.63;2618050;31;20435;-62
2021/08/15 00:45:13;;;;;;;10.20;6.60;;;;;;;14.96;100.00;101641.44;2617889;36;20034;-62
2021/08/15 00:47:41;;;;;;;12.80;6.50;;;;;;;14.92;100.00;101632.78;2617831;36;20030;-62
2021/08/15 00:50:10;;;;;;;11.90;6.53;;;;;;;14.89;100.00;101625.78;2617629;36;20026;-62
2021/08/15 00:52:39;;;;;;;9.35;6.65;;;;;;;14.89;100.00;101616.81;2618004;36;20072;-63
2021/08/15 00:55:13;;;;;;;13.60;7.17;;;;;;;14.86;100.00;101617.09;2618423;36;20560;-62
2021/08/15 00:57:44;;;;;;;14.90;6.18;;;;;;;14.98;100.00;101626.75;2617848;36;20126;-62
2021/08/15 01:00:14;;;;;;;12.43;6.15;;;;;;;14.98;100.00;101628.63;2619111;31;20546;-62
2021/08/15 01:02:44;;;;;;;12.43;6.30;;;;;;;14.98;100.00;101625.91;2618748;36;20393;-62
2021/08/15 01:05:12;;;;;;;;;;;;;;;15.04;100.00;101636.16;2618034;36;20070;-62
2021/08/15 01:07:41;;;;;;;11.20;6.68;;;;;;;15.05;100.00;101636.00;2617716;36;20069;-62
2021/08/15 01:10:12;;;;;;;11.65;6.72;;;;;;;15.01;100.00;101626.47;2617693;36;20034;-62
2021/08/15 01:12:41;;;;;;;11.60;6.57;;;;;;;15.08;100.00;101634.88;2617927;36;20044;-62
2021/08/15 01:15:11;;;;;;;10.68;6.85;;;;;;;15.13;100.00;101627.13;2617599;36;20142;-62
2021/08/15 01:17:39;;;;;;;13.50;7.45;;;;;;;15.17;100.00;101625.00;2617989;36;20149;-62
2021/08/15 01:20:09;;;;;;;12.20;6.30;;;;;;;15.21;100.00;101615.59;2617453;36;20057;-62
2021/08/15 01:22:39;;;;;;;10.95;6.68;;;;;;;15.17;100.00;101614.16;2617860;36;20579;-62
2021/08/15 01:25:08;;;;;;;10.77;6.60;;;;;;;15.17;100.00;101615.00;2617626;36;20149;-62
2021/08/15 01:27:43;;;;;;;9.32;6.15;;;;;;;15.19;100.00;101601.28;2617920;36;20197;-62
2021/08/15 01:30:16;;;;;;;11.40;7.28;;;;;;;15.20;100.00;101601.16;2617479;31;20041;-62
2021/08/15 01:32:47;;;;;;;11.38;7.13;;;;;;;15.19;100.00;101607.59;2617830;36;20030;-62
2021/08/15 01:35:15;;;;;;;12.25;6.70;;;;;;;15.12;100.00;101595.63;2617835;36;20073;-62
2021/08/15 01:37:44;;;;;;;16.50;8.02;;;;;;;15.14;100.00;101587.34;2618480;31;20504;-62
2021/08/15 01:40:13;;;;;;;11.45;7.32;;;;;;;15.18;100.00;101586.03;2617413;31;20163;-62
2021/08/15 01:42:41;;;;;;;;;;;;;;;15.11;100.00;101584.94;2617786;31;20582;-62
2021/08/15 01:45:15;;;;;;;11.65;7.18;;;;;;;15.09;100.00;101579.66;2618089;36;20343;-62
2021/08/15 01:47:43;;;;;;;11.82;7.93;;;;;;;15.09;100.00;101576.94;2617816;36;20029;-62
2021/08/15 01:50:12;;;;;;;15.07;7.18;;;;;;;15.06;100.00;101579.94;2617422;31;20536;-63
2021/08/15 01:52:40;;;;;;;12.05;7.68;;;;;;;15.10;100.00;101572.38;2617510;36;20148;-62
2021/08/15 01:57:41;;;;;;;16.17;7.80;;;;;;;15.14;100.00;101560.22;2616393;36;20027;-62
2021/08/15 02:00:10;;;;;;;9.40;6.93;;;;;;;15.17;100.00;101566.19;2617379;36;20101;-63
2021/08/15 02:02:44;;;;;;;12.25;6.63;;;;;;;15.16;100.00;101569.91;2617840;36;20023;-62
2021/08/15 02:05:18;;;;;;;13.57;7.40;;;;;;;15.16;100.00;101556.34;2618462;31;20530;-62
2021/08/15 02:07:47;;;;;;;14.48;7.57;;;;;;;15.10;100.00;101565.06;2618054;36;20436;-63
2021/08/15 02:10:16;;;;;;;13.18;7.13;;;;;;;15.18;100.00;101569.75;2617446;36;20576;-63
2021/08/15 02:12:44;;;;;;;13.70;7.47;;;;;;;15.17;100.00;101568.06;2617502;36;20118;-62
2021/08/15 02:15:13;;;;;;;15.18;7.93;;;;;;;15.16;100.00;101574.47;2617660;36;20082;-62
2021/08/15 02:17:44;;;;;;;13.07;8.32;;;;;;;15.16;100.00;101563.63;2617950;36;20026;-62
2021/08/15 02:20:14;;;;;;;10.95;7.50;;;;;;;15.17;100.00;101566.19;2617454;36;20044;-62
2021/08/15 02:22:42;;;;;;;12.32;7.63;;;;;;;15.10;100.00;101558.81;2618204;36;20560;-62
2021/08/15 02:25:11;;;;;;;11.07;7.43;;;;;;;15.10;100.00;101547.97;2617830;36;20536;-62
2021/08/15 02:27:41;;;;;;;13.35;8.18;;;;;;;15.10;100.00;101545.25;2617801;31;20367;-62
2021/08/15 02:30:10;;;;;;;;;;;;;;;15.12;100.00;101551.38;2617576;36;20501;-62
2021/08/15 02:32:39;;;;;;;13.15;7.97;;;;;;;15.11;100.00;101544.25;2617729;36;20436;-62
2021/08/15 02:35:12;;;;;;;14.35;8.15;;;;;;;15.11;100.00;101552.41;2618068;36;20100;-63
2021/08/15 02:37:42;;;;;;;12.50;8.38;;;;;;;15.05;100.00;101551.13;2617733;36;20142;-62
2021/08/15 02:40:12;;;;;;;13.02;7.80;;;;;;;15.01;100.00;101549.72;2616813;36;20023;-63
2021/08/15 02:42:43;;;;;;;13.98;7.45;;;;;;;14.96;100.00;101533.03;2616877;36;20114;-62
2021/08/15 02:45:14;;;;;;;13.13;8.75;;;;;;;14.99;100.00;101536.31;2616931;36;20026;-62
2021/08/15 02:47:42;;;;;;;16.38;8.48;;;;;;;15.00;100.00;101529.88;2618169;31;20539;-62
2021/08/15 02:50:15;;;;;;;14.67;8.77;;;;;;;15.03;100.00;101539.56;2617371;36;20077;-63
2021/08/15 02:52:43;;;;;;;13.10;7.75;;;;;;;15.07;100.00;101530.13;2616866;36;20049;-62
2021/08/15 02:55:13;;;;;;;16.40;8.32;;;;;;;15.02;100.00;101522.44;2617046;36;20022;-62
2021/08/15 02:57:41;;;;;;;14.40;8.32;;;;;;;14.95;100.00;101509.66;2616588;36;20121;-62
2021/08/15 03:00:12;;;;;;;14.90;8.03;;;;;;;14.93;100.00;101515.22;2617443;36;20118;-62
2021/08/15 03:02:40;;;;;;;13.95;8.38;;;;;;;14.94;100.00;101506.06;2617068;36;20383;-62
2021/08/15 03:05:13;;;;;;;13.45;8.73;;;;;;;14.91;100.00;101502.81;2616927;36;20069;-63
2021/08/15 03:07:41;;;;;;;15.60;9.35;;;;;;;14.90;100.00;101510.09;2617464;36;20022;-62
2021/08/15 03:10:11;;;;;;;15.98;8.98;;;;;;;14.91;100.00;101511.78;2616626;36;20042;-62
2021/08/15 03:12:40;;;;;;;19.90;9.48;;;;;;;14.87;100.00;101502.28;2617034;36;20030;-62
2021/08/15 03:15:09;;;;;;;14.65;9.25;;;;;;;14.85;100.00;101504.25;2616973;36;20085;-63
2021/08/15 03:17:37;;;;;;;;;;;;;;;14.79;100.00;101497.56;2616799;36;20037;-62
2021/08/15 03:20:06;;;;;;;14.20;8.40;;;;;;;14.81;100.00;101500.13;2616592;36;19975;-62
2021/08/15 03:22:37;;;;;;;19.60;9.30;;;;;;;14.78;100.00;101495.88;2617018;36;20051;-62
2021/08/15 03:25:07;;;;;;;15.00;9.35;;;;;;;14.76;100.00;101491.59;2617165;31;20109;-63
2021/08/15 03:27:35;;;;;;;;;;;;;;;14.75;100.00;101490.72;2616690;36;20603;-62
2021/08/15 03:30:04;;;;;;;17.48;9.73;;;;;;;14.75;100.00;101500.72;2617096;36;20038;-63
2021/08/15 03:32:32;;;;;;;;;;;;;;;14.80;100.00;101493.88;2617153;36;20027;-63
2021/08/15 03:35:00;;;;;;;15.85;9.50;;;;;;;14.81;100.00;101492.00;2617755;36;20332;-62
2021/08/15 03:37:28;;;;;;;18.60;9.30;;;;;;;14.79;100.00;101480.47;2617075;36;20668;-62
2021/08/15 03:39:59;;;;;;;18.92;9.95;;;;;;;14.78;100.00;101489.59;2617129;36;20153;-62
2021/08/15 03:42:27;;;;;;;16.17;9.68;;;;;;;14.82;100.00;101496.44;2616514;36;20575;-62
2021/08/15 03:44:55;;;;;;;16.70;9.30;;;;;;;14.80;100.00;101488.44;2616947;36;20527;-63
2021/08/15 03:47:23;;;;;;;13.23;9.07;;;;;;;14.79;100.00;101488.59;2617290;36;20057;-62
2021/08/15 03:49:51;;;;;;;16.48;10.27;;;;;;;14.81;100.00;101483.88;2617084;36;20121;-62
2021/08/15 03:52:20;;;;;;;15.27;9.93;;;;;;;14.78;100.00;101485.03;2616868;36;20162;-62
2021/08/15 03:54:48;;;;;;;19.05;10.80;;;;;;;14.77;100.00;101488.75;2617064;36;20114;-63
2021/08/15 03:57:19;;;;;;;17.27;10.68;;;;;;;14.77;100.00;101496.03;2616586;36;20603;-62
2021/08/15 03:59:47;;;;;;;19.02;10.65;;;;;;;14.79;100.00;101497.56;2617014;31;20056;-62
2021/08/15 04:02:16;;;;;;;16.20;10.20;;;;;;;14.80;100.00;101485.75;2617495;31;20471;-62
2021/08/15 04:04:44;;;;;;;16.27;10.05;;;;;;;14.80;100.00;101493.03;2616842;36;20125;-62
2021/08/15 04:07:12;;;;;;;17.48;10.80;;;;;;;14.80;100.00;101487.59;2617238;36;20129;-62
2021/08/15 04:09:41;;;;;;;18.23;9.77;;;;;;;14.75;100.00;101469.06;2617485;36;20038;-62
2021/08/15 04:12:09;;;;;;;18.73;10.35;;;;;;;14.77;100.00;101474.34;2615965;36;20181;-62
2021/08/15 04:14:40;;;;;;;14.87;10.30;;;;;;;14.80;100.00;101468.63;2617359;31;20531;-62
2021/08/15 04:17:08;;;;;;;20.80;10.65;;;;;;;14.77;100.00;101461.66;2616979;36;20439;-62
2021/08/15 04:19:36;;;;;;;19.67;11.18;;;;;;;14.77;100.00;101463.50;2616905;36;20130;-63
2021/08/15 04:22:05;;;;;;;17.77;10.77;;;;;;;14.77;100.00;101452.69;2616743;36;20110;-63
2021/08/15 04:24:33;;;;;;;16.38;10.38;;;;;;;14.71;100.00;101452.25;2617008;36;20077;-62
2021/08/15 04:27:01;;;;;;;18.67;10.30;;;;;;;14.75;100.00;101446.53;2616864;36;20035;-62
2021/08/15 04:29:29;;;;;;;18.80;10.43;;;;;;;14.78;100.00;101446.22;2616919;36;20034;-63
2021/08/15 04:32:00;;;;;;;14.95;9.82;;;;;;;14.78;100.00;101446.22;2617273;31;20504;-63
2021/08/15 04:34:28;;;;;;;15.93;9.82;;;;;;;14.83;100.00;101446.66;2616608;36;20035;-63
2021/08/15 04:36:57;;;;;;;16.27;10.55;;;;;;;14.84;100.00;101449.22;2616969;31;20122;-62
2021/08/15 04:39:25;;;;;;;15.10;9.15;;;;;;;14.82;100.00;101450.34;2616600;36;20129;-63
2021/08/15 04:41:53;;;;;;;13.40;8.23;;;;;;;14.86;100.00;101454.47;2616671;31;20106;-62
2021/08/15 04:44:21;;;;;;;15.07;9.05;;;;;;;14.91;100.00;101443.19;2616262;36;21472;-62
2021/08/15 04:46:50;;;;;;;16.20;9.13;;;;;;;14.94;100.00;101440.16;2617071;36;20134;-63
2021/08/15 04:49:20;;;;;;;18.52;9.38;;;;;;;14.94;100.00;101445.59;2616650;36;20118;-62
2021/08/15 04:51:49;;;;;;;15.75;10.20;;;;;;;14.95;100.00;101445.44;2616798;36;20023;-62
2021/08/15 04:54:19;;;;;;;14.98;8.73;;;;;;;14.96;100.00;101439.03;2617104;31;20539;-62
2021/08/15 04:56:47;;;;;;;13.40;8.98;;;;;;;14.95;100.00;101440.03;2617499;31;20406;-62
2021/08/15 04:59:16;;;;;;;18.05;9.93;;;;;;;14.98;100.00;101437.00;2616685;36;20639;-63
2021/08/15 05:01:44;;;;;;;17.60;9.90;;;;;;;14.98;100.00;101425.31;2616529;31;20106;-62
2021/08/15 05:04:12;;;;;;;18.08;9.65;;;;;;;14.99;100.00;101430.59;2615998;36;20163;-63
2021/08/15 05:06:43;;;;;;;16.02;9.07;;;;;;;15.02;100.00;101414.03;2616781;36;20587;-63
2021/08/15 05:09:11;;;;;;;16.77;9.82;;;;;;;15.06;100.00;101428.09;2616571;36;20569;-62
2021/08/15 05:11:39;;;;;;;19.02;9.70;;;;;;;15.06;100.00;101428.09;2616975;36;20049;-63
2021/08/15 05:14:08;;;;;;;20.53;10.57;;;;;;;15.09;100.00;101426.97;2616413;36;20106;-62
2021/08/15 05:16:37;;;;;;;21.67;10.93;;;;;;;15.11;100.00;101422.25;2616378;36;20272;-63
2021/08/15 05:19:05;;;;;;;15.82;9.25;;;;;;;15.15;100.00;101420.91;2616854;36;20162;-63
2021/08/15 05:21:33;;;;;;;14.20;9.65;;;;;;;15.19;100.00;101417.78;2616774;36;20110;-63
2021/08/15 05:24:04;;;;;;;20.90;9.68;;;;;;;15.21;100.00;101423.88;2617014;36;20112;-63
2021/08/15 05:26:32;;;;;;;14.13;9.02;;;;;;;15.24;100.00;101422.75;2616784;36;20122;-62
2021/08/15 05:29:00;;;;;;;18.30;9.73;;;;;;;15.29;100.00;101430.41;2616917;36;20143;-63
2021/08/15 05:31:28;;;;;;;15.50;9.57;;;;;;;15.31;100.00;101426.53;2617096;36;20031;-62
2021/08/15 05:33:57;;;;;;;15.95;10.10;;;;;;;15.30;100.00;101424.84;2617304;36;20110;-63
2021/08/15 05:36:25;;;;;;;17.08;9.65;;;;;;;15.33;100.00;101418.25;2617215;36;20589;-63
2021/08/15 05:38:53;;;;;;;18.67;10.38;;;;;;;15.39;100.00;101421.19;2617307;36;20178;-62
2021/08/15 05:41:24;;;;;;;16.43;9.13;;;;;;;15.52;100.00;101422.69;2617225;36;20131;-62
2021/08/15 05:43:52;;;;;;;16.50;9.98;;;;;;;15.54;100.00;101420.66;2617583;36;20050;-63
2021/08/15 05:46:20;;;;;;;17.67;9.98;;;;;;;15.47;100.00;101425.00;2618035;31;20460;-62
2021/08/15 05:48:48;;;;;;;18.83;9.82;;;;;;;15.48;100.00;101422.13;2617362;31;20114;-62
2021/08/15 05:51:17;;;;;;;15.48;10.20;;;;;;;15.53;100.00;101424.38;2617561;36;20163;-63
2021/08/15 05:53:45;;;;;;;16.58;9.80;;;;;;;15.50;100.00;101421.97;2617824;36;20499;-62
2021/08/15 05:56:13;;;;;;;18.50;10.00;;;;;;;15.46;100.00;101421.44;2617053;36;20081;-62
2021/08/15 05:58:44;;;;;;;15.32;9.73;;;;;;;15.48;100.00;101421.28;2617614;36;20118;-62
2021/08/15 06:01:12;;;;;;;13.85;9.27;;;;;;;15.50;100.00;101430.09;2616761;36;20559;-63
2021/08/15 06:03:40;;;;;;;16.13;10.25;;;;;;;15.52;100.00;101428.13;2616804;36;20055;-62
2021/08/15 06:06:09;;;;;;;17.80;10.07;;;;;;;15.62;100.00;101434.31;2617174;36;20158;-65
2021/08/15 06:08:37;;;;;;;14.97;9.17;;;;;;;15.65;100.00;101433.13;2617470;36;20073;-62
2021/08/15 06:11:05;;;;;;;17.30;10.85;;;;;;;15.63;100.00;101427.84;2617047;36;20080;-63
2021/08/15 06:13:33;;;;;;;18.35;10.35;;;;;;;15.57;100.00;101425.78;2617277;36;20153;-62
2021/08/15 06:16:04;;;;;;;15.43;10.10;;;;;;;15.57;100.00;101426.63;2617295;36;20073;-63
2021/08/15 06:18:32;;;;;;;17.88;10.35;;;;;;;15.64;100.00;101423.31;2617384;31;20158;-63
2021/08/15 06:21:00;;;;;;;18.13;10.32;;;;;;;15.68;100.00;101422.84;2617040;36;20122;-63
2021/08/15 06:23:29;;;;;;;20.50;10.35;;;;;;;15.77;100.00;101430.03;2617362;36;20150;-63
2021/08/15 06:25:57;;;;;;;17.23;10.18;;;;;;;15.92;100.00;101429.50;2617264;36;20081;-63
2021/08/15 06:28:25;;;;;;;18.60;10.30;;;;;;;15.86;100.00;101430.16;2617239;36;20030;-63
2021/08/15 06:30:53;;;;;;;17.17;10.20;;;;;;;15.90;100.00;101421.53;2617676;36;20034;-62
2021/08/15 06:33:24;;;;;;;18.30;10.77;;;;;;;16.04;100.00;101425.53;2617193;36;20113;-63
2021/08/15 06:35:52;;;;;;;17.67;11.30;;;;;;;15.87;100.00;101432.69;2617361;31;20146;-63
2021/08/15 06:38:21;;;;;;;16.75;10.88;;;;;;;15.79;100.00;101426.34;2617263;36;20165;-62
2021/08/15 06:40:49;;;;;;;17.33;10.38;;;;;;;15.83;100.00;101425.03;2616624;36;20110;-62
2021/08/15 06:43:17;;;;;;;18.10;11.30;;;;;;;16.04;100.00;101413.81;2617303;31;20162;-62
2021/08/15 06:45:46;;;;;;;22.58;12.02;;;;;;;16.26;100.00;101423.31;2617217;36;20038;-62
2021/08/15 06:48:15;;;;;;;13.95;9.70;;;;;;;16.41;100.00;101412.69;2617397;36;20522;-63
2021/08/15 06:50:45;;;;;;;18.50;10.95;;;;;;;16.50;100.00;101411.72;2616736;36;20602;-62
2021/08/15 06:53:14;;;;;;;15.15;10.77;;;;;;;16.74;100.00;101402.84;2617265;36;20030;-62
2021/08/15 06:55:42;;;;;;;16.85;10.68;;;;;;;17.00;100.00;101401.94;2616972;36;20055;-63
2021/08/15 06:58:10;;;;;;;19.30;10.30;;;;;;;17.01;100.00;101403.66;2616678;36;20038;-63
2021/08/15 07:00:38;;;;;;;17.50;9.80;;;;;;;17.02;100.00;101390.91;2617386;36;20114;-63
2021/08/15 07:03:06;;;;;;;15.60;10.18;;;;;;;17.17;100.00;101381.09;2616866;36;20162;-63
2021/08/15 07:05:35;;;;;;;14.27;9.52;;;;;;;17.26;100.00;101385.53;2617144;36;20047;-62
2021/08/15 07:08:06;;;;;;;16.85;9.80;;;;;;;17.49;100.00;101385.72;2617068;36;20539;-63
2021/08/15 07:10:34;;;;;;;19.45;9.57;;;;;;;17.46;100.00;101388.78;2617877;31;20500;-62
2021/08/15 07:13:06;;;;;;;16.13;9.60;;;;;;;17.61;100.00;101393.56;2617562;36;20408;-62
2021/08/15 07:15:35;;;;;;;13.93;9.27;;;;;;;17.60;100.00;101392.69;2616880;36;20320;-62
2021/08/15 07:18:03;;;;;;;15.52;9.15;;;;;;;17.67;100.00;101387.44;2617176;36;20102;-63
2021/08/15 07:20:32;;;;;;;13.75;9.43;;;;;;;17.90;100.00;101392.22;2616528;36;20085;-63
2021/08/15 07:23:02;;;;;;;14.77;8.82;;;;;;;17.99;100.00;101385.72;2617248;36;20560;-63
2021/08/15 07:25:33;;;;;;;15.82;9.50;;;;;;;17.95;100.00;101378.97;2616693;36;20029;-62
2021/08/15 07:28:01;;;;;;;13.50;7.72;;;;;;;18.18;100.00;101390.84;2617057;36;20125;-63
2021/08/15 07:30:30;;;;;;;15.55;8.57;;;;;;;18.32;100.00;101386.53;2617227;31;20037;-62
2021/08/15 07:33:00;;;;;;;14.07;8.82;;;;;;;18.47;100.00;101374.91;2616618;36;20151;-63
2021/08/15 07:35:30;;;;;;;21.58;9.57;;;;;;;18.34;100.00;101383.63;2617002;31;20034;-62
2021/08/15 07:37:58;;;;;;;15.60;8.25;;;;;;;18.29;100.00;101384.16;2617623;36;20420;-63
2021/08/15 07:40:27;;;;;;;25.87;9.57;;;;;;;18.23;100.00;101381.25;2616739;36;20035;-62
2021/08/15 07:42:59;;;;;;;21.10;9.85;;;;;;;18.70;100.00;101383.19;2616926;36;20342;-63
2021/08/15 07:45:31;;;;;;;14.25;8.18;;;;;;;18.89;100.00;101374.59;2617433;36;20560;-63
2021/08/15 07:47:59;;;;;;;13.63;7.82;;;;;;;19.11;100.00;101368.50;2617769;31;20488;-62
2021/08/15 07:50:33;;;;;;;13.85;8.38;;;;;;;19.32;100.00;101371.44;2616844;36;20078;-63
2021/08/15 07:53:02;;;;;;;11.95;7.80;;;;;;;19.53;100.00;101369.91;2617298;31;20031;-63
2021/08/15 07:55:30;;;;;;;14.77;8.25;;;;;;;19.90;100.00;101369.09;2616477;36;20636;-63
2021/08/15 07:58:01;;;;;;;15.70;7.47;;;;;;;20.40;100.00;101379.53;2616635;36;20138;-63
2021/08/15 08:00:31;;;;;;;15.57;8.27;;;;;;;19.90;100.00;101374.56;2617715;31;20697;-63
2021/08/15 08:02:59;;;;;;;14.13;7.75;;;;;;;19.36;100.00;101372.78;2616785;36;20422;-63
2021/08/15 08:05:27;;;;;;;14.15;8.13;;;;;;;19.44;100.00;101372.69;2616404;36;20220;-63
2021/08/15 08:07:55;;;;;;;19.50;8.87;;;;;;;19.42;100.00;101366.56;2616893;36;20110;-62
2021/08/15 08:10:24;;;;;;;14.25;7.35;;;;;;;19.75;100.00;101363.56;2616458;36;20042;-62
2021/08/15 08:12:52;;;;;;;11.38;7.60;;;;;;;19.83;100.00;101362.69;2616799;31;20583;-63
2021/08/15 08:15:23;;;;;;;14.10;8.40;;;;;;;19.89;100.00;101355.63;2617264;31;20077;-63
2021/08/15 08:17:51;;;;;;;15.65;7.93;;;;;;;19.94;100.00;101361.38;2617131;36;20125;-62
2021/08/15 08:20:21;;;;;;;13.55;8.20;;;;;;;20.02;100.00;101360.44;2617126;31;20643;-63
2021/08/15 08:22:49;;;;;;;18.65;8.68;;;;;;;19.81;100.00;101359.28;2616764;36;20023;-62
2021/08/15 08:28:06;;;;;;;13.10;7.15;;;;;;;20.26;100.00;101357.47;2614873;36;20033;-63
2021/08/15 08:30:36;;;;;;;13.07;7.25;;;;;;;20.24;100.00;101355.94;2616606;36;20178;-62
2021/08/15 08:33:05;;;;;;;13.50;8.00;;;;;;;20.36;100.00;101354.47;2616461;36;20038;-63
2021/08/15 08:35:33;;;;;;;14.20;7.93;;;;;;;20.76;100.00;101351.41;2616842;36;20130;-63
2021/08/15 08:38:01;;;;;;;12.27;7.78;;;;;;;20.67;100.00;101349.81;2617202;36;20205;-63
2021/08/15 08:40:30;;;;;;;16.40;7.93;;;;;;;20.78;100.00;101352.06;2616903;36;20093;-63
2021/08/15 08:42:59;;;;;;;14.35;7.32;;;;;;;20.91;100.00;101349.50;2616880;31;20384;-64
2021/08/15 08:45:30;;;;;;;11.85;7.32;;;;;;;20.60;100.00;101345.09;2616550;36;20022;-63
2021/08/15 08:48:01;;;;;;;14.95;8.52;;;;;;;20.30;100.00;101350.59;2617249;36;20416;-63
2021/08/15 08:50:29;;;;;;;13.73;7.90;;;;;;;20.40;100.00;101346.72;2617057;36;20070;-63
2021/08/15 08:52:59;;;;;;;14.82;7.82;;;;;;;20.76;100.00;101343.19;2617339;31;20142;-63
2021/08/15 08:55:28;;;;;;;12.68;7.22;;;;;;;21.22;100.00;101339.31;2616965;36;20174;-63
2021/08/15 08:57:56;;;;;;;12.93;7.95;;;;;;;21.51;100.00;101343.84;2616769;31;20034;-63
2021/08/15 09:00:25;;;;;;;13.70;7.57;;;;;;;21.01;100.00;101335.50;2616400;36;20069;-63
2021/08/15 09:03:00;;;;;;;14.20;7.32;;;;;;;20.87;100.00;101342.72;2616338;36;20111;-63
2021/08/15 09:05:34;;;;;;;12.70;6.88;;;;;;;21.05;100.00;101333.22;2617554;36;20155;-63
2021/08/15 09:08:03;;;;;;;13.32;7.78;;;;;;;21.02;100.00;101337.19;2617640;36;20536;-63
2021/08/15 09:10:35;;;;;;;12.88;7.38;;;;;;;21.22;100.00;101334.69;2617653;36;20162;-62
2021/08/15 09:13:04;;;;;;;11.43;6.35;;;;;;;21.76;100.00;101340.66;2617455;36;20023;-62
2021/08/15 09:15:33;;;;;;;12.00;6.95;;;;;;;21.52;100.00;101329.94;2617472;36;20130;-63
2021/08/15 09:18:05;;;;;;;13.02;7.07;;;;;;;21.32;100.00;101329.72;2616950;36;20026;-63
2021/08/15 09:20:42;;;;;;;14.77;7.50;;;;;;;21.24;100.00;101329.00;2617177;36;20085;-63
2021/08/15 09:23:22;;;;;;;14.85;7.50;;;;;;;21.61;100.00;101322.44;2617505;36;20026;-63
2021/08/15 09:26:11;;;;;;;14.25;6.13;;;;;;;22.10;100.00;101317.94;2618123;31;20488;-63
2021/08/15 09:28:40;;;;;;;12.65;6.35;;;;;;;22.17;100.00;101315.22;2617447;31;20146;-63
2021/08/15 09:31:18;;;;;;;;;;;;;;;22.11;100.00;101325.09;2614999;54;20049;-63
2021/08/15 09:33:49;;;;;;;10.48;6.18;;;;;;;22.62;100.00;101310.19;2616826;36;19981;-63
2021/08/15 09:36:27;;;;;;;10.90;6.63;;;;;;;22.45;100.00;101312.44;2617445;36;20035;-63
2021/08/15 09:38:58;;;;;;;9.70;5.95;;;;;;;22.37;100.00;101307.97;2617449;36;20062;-62
2021/08/15 09:41:28;;;;;;;12.15;7.20;;;;;;;22.29;100.00;101297.16;2617668;36;20468;-63
2021/08/15 09:44:21;;;;;;;11.43;6.53;;;;;;;22.53;100.00;101292.25;2617436;36;20082;-63
2021/08/15 09:47:05;;;;;;;12.63;6.57;;;;;;;22.14;100.00;101301.91;2617009;31;20154;-63
2021/08/15 09:49:40;;;;;;;10.38;5.82;;;;;;;22.03;100.00;101300.59;2617896;36;20069;-62
2021/08/15 09:52:10;;;;;;;13.55;6.32;;;;;;;21.95;100.00;101298.00;2617650;36;20621;-62
2021/08/15 09:54:39;;;;;;;10.30;4.70;;;;;;;22.70;100.00;101288.09;2617389;36;20130;-63
2021/08/15 09:57:29;;;;;;;9.55;4.75;;;;;;;22.70;100.00;101282.59;2617818;31;20096;-62
2021/08/15 09:59:57;;;;;;;10.00;4.90;;;;;;;22.65;100.00;101284.25;2618000;31;20023;-63
2021/08/15 10:02:26;;;;;;;10.82;5.32;;;;;;;22.41;100.00;101283.75;2616810;36;20109;-62
2021/08/15 10:04:57;;;;;;;10.18;5.15;;;;;;;22.69;100.00;101274.56;2616840;36;20066;-63
2021/08/15 10:07:26;;;;;;;11.25;5.00;;;;;;;23.39;100.00;101266.88;2617514;36;20068;-63
2021/08/15 10:09:55;;;;;;;7.80;3.95;;;;;;;23.44;100.00;101269.00;2617659;36;20033;-63
2021/08/15 10:12:23;;;;;;;;;;;;;;;23.43;100.00;101264.56;2617288;36;20572;-64
2021/08/15 10:14:51;;;;;;;10.27;5.00;;;;;;;23.29;100.00;101263.69;2617210;36;19946;-64
2021/08/15 10:17:22;;;;;;;9.55;5.10;;;;;;;23.44;100.00;101261.59;2617149;36;20085;-63
2021/08/15 10:20:00;;;;;;;10.32;4.53;;;;;;;23.38;100.00;101256.09;2617383;36;20057;-62
2021/08/15 10:22:31;;;;;;;8.77;4.82;;;;;;;23.65;100.00;101254.19;2617435;36;20142;-62
2021/08/15 10:25:04;;;;;;;9.68;5.03;;;;;;;23.34;100.00;101254.84;2617094;36;20311;-63
2021/08/15 10:27:48;;;;;;;7.82;4.85;;;;;;;23.42;100.00;101246.38;2617537;36;20030;-63
2021/08/15 10:30:45;;;;;;;8.90;3.97;;;;;;;23.80;100.00;101248.44;2617780;31;20472;-64
2021/08/15 10:33:31;;;;;;;11.45;4.45;;;;;;;23.65;100.00;101248.69;2617280;36;20037;-63
2021/08/15 10:36:25;;;;;;;8.75;4.80;;;;;;;23.71;100.00;101244.25;2617047;36;20050;-63
2021/08/15 10:38:55;;;;;;;10.63;5.00;;;;;;;23.93;100.00;101239.34;2617229;31;20022;-64
2021/08/15 10:41:51;;;;;;;9.27;4.55;;;;;;;24.46;100.00;101230.88;2618015;31;20469;-64
2021/08/15 10:44:21;;;;;;;8.75;4.72;;;;;;;24.29;100.00;101235.19;2617395;36;20031;-64
2021/08/15 10:47:17;;;;;;;9.73;5.15;;;;;;;23.59;100.00;101222.06;2617015;36;20028;-63
2021/08/15 10:50:02;;;;;;;7.65;4.00;;;;;;;24.24;100.00;101224.03;2617774;36;20408;-63
2021/08/15 10:52:37;;;;;;;8.70;5.03;;;;;;;23.74;100.00;101211.66;2616479;36;20119;-64
2021/08/15 10:55:09;;;;;;;10.93;4.53;;;;;;;24.03;100.00;101215.00;2615117;36;20030;-64
2021/08/15 10:57:48;;;;;;;11.10;4.57;;;;;;;24.53;100.00;101205.22;2616854;36;20029;-63
2021/08/15 11:02:53;;;;;;;10.00;4.93;;;;;;;24.12;100.00;101213.69;2615524;36;20511;-63
2021/08/15 11:05:37;;;;;;;10.52;4.38;;;;;;;24.15;100.00;101209.66;2616176;36;20097;-63
2021/08/15 11:08:43;;;;;;;8.88;4.72;;;;;;;24.17;100.00;101206.69;2616210;36;20038;-64
2021/08/15 11:11:12;;;;;;;10.82;4.47;;;;;;;24.82;100.00;101207.44;2616701;36;20030;-63
2021/08/15 11:13:41;;;;;;;6.85;3.90;;;;;;;24.46;100.00;101219.88;2617124;36;20528;-63
2021/08/15 11:16:40;;;;;;;6.45;3.88;;;;;;;24.18;100.00;101211.16;2616415;36;20137;-63
2021/08/15 11:19:26;;;;;;;;;;;;;;;23.91;100.00;101203.84;2617823;36;20585;-64
2021/08/15 11:22:13;;;;;;;8.25;4.22;;;;;;;24.16;100.00;101196.75;2617045;36;19951;-63
2021/08/15 11:24:52;;;;;;;8.25;3.58;;;;;;;24.62;100.00;101195.72;2617181;36;20022;-63
2021/08/15 11:27:27;;;;;;;7.93;3.72;;;;;;;24.43;100.00;101209.31;2617239;36;20065;-63
2021/08/15 11:29:57;;;;;;;5.97;3.72;;;;;;;24.16;100.00;101199.50;2617198;36;20029;-63
2021/08/15 11:32:28;;;;;;;6.97;4.03;;;;;;;24.84;100.00;101205.28;2616735;36;20118;-64
2021/08/15 11:34:58;;;;;;;7.72;3.10;;;;;;;24.68;100.00;101210.50;2617354;36;20158;-63